sensor_id;sensor_type;location;lat;lon;timestamp;P1;durP1;ratioP1;P2;durP2;ratioP2
15635;SDS011;7917;50.818;6.972;2023-05-27T00:00:01;18.85;;;5.60;;
15635;SDS011;7917;50.818;6.972;2023-05-27T00:02:28;22.98;;;6.82;;
15635;SDS011;7917;50.818;6.972;2023-05-27T00:04:55;14.65;;;5.90;;
15635;SDS011;7917;50.818;6.972;2023-05-27T00:07:22;20.73;;;5.80;;
15635;SDS011;7917;50.818;6.972;2023-05-27T00:09:48;18.05;;;5.57;;
15635;SDS011;7917;50.818;6.972;2023-05-27T00:12:14;15.38;;;5.72;;
15635;SDS011;7917;50.818;6.972;2023-05-27T00:14:42;22.83;;;6.38;;
15635;SDS011;7917;50.818;6.972;2023-05-27T00:17:08;20.05;;;6.00;;
15635;SDS011;7917;50.818;6.972;2023-05-27T00:19:38;15.77;;;6.07;;
15635;SDS011;7917;50.818;6.972;2023-05-27T00:22:05;17.40;;;5.20;;
15635;SDS011;7917;50.818;6.972;2023-05-27T00:24:32;13.52;;;5.80;;
15635;SDS011;7917;50.818;6.972;2023-05-27T00:27:00;13.55;;;5.22;;
15635;SDS011;7917;50.818;6.972;2023-05-27T00:29:27;17.92;;;6.70;;
15635;SDS011;7917;50.818;6.972;2023-05-27T00:31:54;20.83;;;5.95;;
15635;SDS011;7917;50.818;6.972;2023-05-27T00:34:21;18.05;;;5.60;;
15635;SDS011;7917;50.818;6.972;2023-05-27T00:36:49;16.52;;;5.55;;
15635;SDS011;7917;50.818;6.972;2023-05-27T00:39:23;17.52;;;6.93;;
15635;SDS011;7917;50.818;6.972;2023-05-27T00:41:51;16.73;;;5.65;;
15635;SDS011;7917;50.818;6.972;2023-05-27T00:44:18;21.10;;;5.93;;
15635;SDS011;7917;50.818;6.972;2023-05-27T00:46:45;16.60;;;6.07;;
15635;SDS011;7917;50.818;6.972;2023-05-27T00:49:13;22.00;;;6.28;;
15635;SDS011;7917;50.818;6.972;2023-05-27T00:51:40;18.55;;;6.03;;
15635;SDS011;7917;50.818;6.972;2023-05-27T00:54:07;17.02;;;6.28;;
15635;SDS011;7917;50.818;6.972;2023-05-27T00:56:34;14.73;;;5.50;;
15635;SDS011;7917;50.818;6.972;2023-05-27T00:59:02;17.52;;;6.88;;
15635;SDS011;7917;50.818;6.972;2023-05-27T01:01:29;20.88;;;6.32;;
15635;SDS011;7917;50.818;6.972;2023-05-27T01:04:01;17.02;;;5.38;;
15635;SDS011;7917;50.818;6.972;2023-05-27T01:06:30;21.27;;;5.35;;
15635;SDS011;7917;50.818;6.972;2023-05-27T01:09:08;14.18;;;5.60;;
15635;SDS011;7917;50.818;6.972;2023-05-27T01:11:43;13.65;;;5.65;;
15635;SDS011;7917;50.818;6.972;2023-05-27T01:14:15;14.80;;;5.95;;
15635;SDS011;7917;50.818;6.972;2023-05-27T01:16:44;13.60;;;5.20;;
15635;SDS011;7917;50.818;6.972;2023-05-27T01:19:13;19.80;;;5.75;;
15635;SDS011;7917;50.818;6.972;2023-05-27T01:21:41;12.75;;;5.60;;
15635;SDS011;7917;50.818;6.972;2023-05-27T01:24:19;25.05;;;6.85;;
15635;SDS011;7917;50.818;6.972;2023-05-27T01:26:48;17.67;;;6.07;;
15635;SDS011;7917;50.818;6.972;2023-05-27T01:29:14;15.32;;;5.68;;
15635;SDS011;7917;50.818;6.972;2023-05-27T01:31:42;15.95;;;6.22;;
15635;SDS011;7917;50.818;6.972;2023-05-27T01:34:18;16.48;;;5.85;;
15635;SDS011;7917;50.818;6.972;2023-05-27T01:36:51;17.02;;;5.90;;
15635;SDS011;7917;50.818;6.972;2023-05-27T01:39:24;20.30;;;6.18;;
15635;SDS011;7917;50.818;6.972;2023-05-27T01:41:52;20.10;;;5.72;;
15635;SDS011;7917;50.818;6.972;2023-05-27T01:44:20;15.90;;;5.93;;
15635;SDS011;7917;50.818;6.972;2023-05-27T01:46:48;15.82;;;6.28;;
15635;SDS011;7917;50.818;6.972;2023-05-27T01:49:14;16.08;;;6.07;;
15635;SDS011;7917;50.818;6.972;2023-05-27T01:51:41;17.15;;;5.47;;
15635;SDS011;7917;50.818;6.972;2023-05-27T01:54:07;19.58;;;7.13;;
15635;SDS011;7917;50.818;6.972;2023-05-27T01:56:35;23.33;;;5.82;;
15635;SDS011;7917;50.818;6.972;2023-05-27T01:59:02;19.33;;;6.75;;
15635;SDS011;7917;50.818;6.972;2023-05-27T02:01:29;20.33;;;6.50;;
15635;SDS011;7917;50.818;6.972;2023-05-27T02:03:56;15.98;;;6.38;;
15635;SDS011;7917;50.818;6.972;2023-05-27T02:06:23;19.13;;;5.82;;
15635;SDS011;7917;50.818;6.972;2023-05-27T02:08:50;22.30;;;6.07;;
15635;SDS011;7917;50.818;6.972;2023-05-27T02:11:17;20.20;;;6.10;;
15635;SDS011;7917;50.818;6.972;2023-05-27T02:13:46;24.75;;;5.95;;
15635;SDS011;7917;50.818;6.972;2023-05-27T02:16:13;19.38;;;6.25;;
15635;SDS011;7917;50.818;6.972;2023-05-27T02:18:40;23.83;;;5.70;;
15635;SDS011;7917;50.818;6.972;2023-05-27T02:21:06;21.42;;;5.47;;
15635;SDS011;7917;50.818;6.972;2023-05-27T02:23:33;16.33;;;5.55;;
15635;SDS011;7917;50.818;6.972;2023-05-27T02:26:00;20.67;;;6.38;;
15635;SDS011;7917;50.818;6.972;2023-05-27T02:28:27;15.93;;;6.25;;
15635;SDS011;7917;50.818;6.972;2023-05-27T02:30:56;22.42;;;5.95;;
15635;SDS011;7917;50.818;6.972;2023-05-27T02:33:23;16.00;;;5.75;;
15635;SDS011;7917;50.818;6.972;2023-05-27T02:35:50;18.73;;;5.90;;
15635;SDS011;7917;50.818;6.972;2023-05-27T02:38:17;14.43;;;5.97;;
15635;SDS011;7917;50.818;6.972;2023-05-27T02:40:43;23.95;;;6.80;;
15635;SDS011;7917;50.818;6.972;2023-05-27T02:43:10;17.42;;;6.60;;
15635;SDS011;7917;50.818;6.972;2023-05-27T02:45:36;17.08;;;5.70;;
15635;SDS011;7917;50.818;6.972;2023-05-27T02:48:04;19.30;;;6.68;;
15635;SDS011;7917;50.818;6.972;2023-05-27T02:50:31;18.38;;;6.18;;
15635;SDS011;7917;50.818;6.972;2023-05-27T02:52:58;18.77;;;6.63;;
15635;SDS011;7917;50.818;6.972;2023-05-27T02:55:24;18.27;;;6.35;;
15635;SDS011;7917;50.818;6.972;2023-05-27T02:57:52;21.08;;;7.40;;
15635;SDS011;7917;50.818;6.972;2023-05-27T03:03:42;15.45;;;6.47;;
15635;SDS011;7917;50.818;6.972;2023-05-27T03:06:09;20.23;;;5.72;;
15635;SDS011;7917;50.818;6.972;2023-05-27T03:08:36;22.50;;;6.78;;
15635;SDS011;7917;50.818;6.972;2023-05-27T03:11:02;20.45;;;7.20;;
15635;SDS011;7917;50.818;6.972;2023-05-27T03:13:30;21.25;;;6.45;;
15635;SDS011;7917;50.818;6.972;2023-05-27T03:15:57;18.25;;;6.90;;
15635;SDS011;7917;50.818;6.972;2023-05-27T03:18:24;19.65;;;6.80;;
15635;SDS011;7917;50.818;6.972;2023-05-27T03:20:52;16.40;;;6.60;;
15635;SDS011;7917;50.818;6.972;2023-05-27T03:23:18;16.45;;;6.28;;
15635;SDS011;7917;50.818;6.972;2023-05-27T03:25:45;17.58;;;6.47;;
15635;SDS011;7917;50.818;6.972;2023-05-27T03:28:12;16.02;;;6.15;;
15635;SDS011;7917;50.818;6.972;2023-05-27T03:30:41;15.13;;;6.05;;
15635;SDS011;7917;50.818;6.972;2023-05-27T03:33:08;15.93;;;6.57;;
15635;SDS011;7917;50.818;6.972;2023-05-27T03:35:35;24.55;;;6.75;;
15635;SDS011;7917;50.818;6.972;2023-05-27T03:38:03;16.23;;;5.80;;
15635;SDS011;7917;50.818;6.972;2023-05-27T03:40:30;15.18;;;6.68;;
15635;SDS011;7917;50.818;6.972;2023-05-27T03:42:57;19.30;;;7.05;;
15635;SDS011;7917;50.818;6.972;2023-05-27T03:45:24;19.70;;;5.72;;
15635;SDS011;7917;50.818;6.972;2023-05-27T03:47:50;18.52;;;6.38;;
15635;SDS011;7917;50.818;6.972;2023-05-27T03:50:18;14.65;;;6.57;;
15635;SDS011;7917;50.818;6.972;2023-05-27T03:52:45;19.42;;;6.82;;
15635;SDS011;7917;50.818;6.972;2023-05-27T03:55:12;23.40;;;6.60;;
15635;SDS011;7917;50.818;6.972;2023-05-27T03:57:39;22.17;;;6.80;;
15635;SDS011;7917;50.818;6.972;2023-05-27T04:00:06;16.75;;;6.57;;
15635;SDS011;7917;50.818;6.972;2023-05-27T04:02:33;20.23;;;6.53;;
15635;SDS011;7917;50.818;6.972;2023-05-27T04:05:01;17.92;;;6.60;;
15635;SDS011;7917;50.818;6.972;2023-05-27T04:07:28;14.68;;;6.65;;
15635;SDS011;7917;50.818;6.972;2023-05-27T04:09:56;17.92;;;6.53;;
15635;SDS011;7917;50.818;6.972;2023-05-27T04:12:27;16.88;;;6.25;;
15635;SDS011;7917;50.818;6.972;2023-05-27T04:14:54;18.75;;;6.28;;
15635;SDS011;7917;50.818;6.972;2023-05-27T04:17:21;17.20;;;6.60;;
15635;SDS011;7917;50.818;6.972;2023-05-27T04:19:48;21.00;;;6.25;;
15635;SDS011;7917;50.818;6.972;2023-05-27T04:22:15;19.38;;;6.43;;
15635;SDS011;7917;50.818;6.972;2023-05-27T04:24:41;19.77;;;6.30;;
15635;SDS011;7917;50.818;6.972;2023-05-27T04:27:08;20.27;;;6.30;;
15635;SDS011;7917;50.818;6.972;2023-05-27T04:29:37;18.23;;;6.20;;
15635;SDS011;7917;50.818;6.972;2023-05-27T04:32:04;24.77;;;8.32;;
15635;SDS011;7917;50.818;6.972;2023-05-27T04:34:31;20.30;;;6.80;;
15635;SDS011;7917;50.818;6.972;2023-05-27T04:36:57;21.67;;;7.13;;
15635;SDS011;7917;50.818;6.972;2023-05-27T04:39:26;16.58;;;6.05;;
15635;SDS011;7917;50.818;6.972;2023-05-27T04:41:52;21.83;;;6.38;;
15635;SDS011;7917;50.818;6.972;2023-05-27T04:44:23;19.95;;;6.13;;
15635;SDS011;7917;50.818;6.972;2023-05-27T04:46:52;14.82;;;6.55;;
15635;SDS011;7917;50.818;6.972;2023-05-27T04:49:19;14.40;;;5.97;;
15635;SDS011;7917;50.818;6.972;2023-05-27T04:51:48;19.08;;;6.47;;
15635;SDS011;7917;50.818;6.972;2023-05-27T04:54:15;25.27;;;6.95;;
15635;SDS011;7917;50.818;6.972;2023-05-27T04:56:43;19.52;;;6.97;;
15635;SDS011;7917;50.818;6.972;2023-05-27T04:59:10;13.05;;;5.65;;
15635;SDS011;7917;50.818;6.972;2023-05-27T05:01:41;21.02;;;7.22;;
15635;SDS011;7917;50.818;6.972;2023-05-27T05:04:25;22.20;;;6.30;;
15635;SDS011;7917;50.818;6.972;2023-05-27T05:06:52;18.45;;;6.32;;
15635;SDS011;7917;50.818;6.972;2023-05-27T05:09:20;19.42;;;6.00;;
15635;SDS011;7917;50.818;6.972;2023-05-27T05:11:47;17.15;;;5.82;;
15635;SDS011;7917;50.818;6.972;2023-05-27T05:14:14;15.30;;;6.53;;
15635;SDS011;7917;50.818;6.972;2023-05-27T05:16:40;22.05;;;6.95;;
15635;SDS011;7917;50.818;6.972;2023-05-27T05:19:06;17.65;;;6.68;;
15635;SDS011;7917;50.818;6.972;2023-05-27T05:21:34;22.30;;;6.53;;
15635;SDS011;7917;50.818;6.972;2023-05-27T05:24:01;22.83;;;7.00;;
15635;SDS011;7917;50.818;6.972;2023-05-27T05:26:29;14.18;;;6.18;;
15635;SDS011;7917;50.818;6.972;2023-05-27T05:28:56;18.35;;;6.53;;
15635;SDS011;7917;50.818;6.972;2023-05-27T05:31:23;20.23;;;7.47;;
15635;SDS011;7917;50.818;6.972;2023-05-27T05:33:51;18.35;;;6.72;;
15635;SDS011;7917;50.818;6.972;2023-05-27T05:36:17;12.90;;;5.50;;
15635;SDS011;7917;50.818;6.972;2023-05-27T05:38:49;19.08;;;6.78;;
15635;SDS011;7917;50.818;6.972;2023-05-27T05:41:16;17.23;;;5.20;;
15635;SDS011;7917;50.818;6.972;2023-05-27T05:43:43;17.58;;;6.50;;
15635;SDS011;7917;50.818;6.972;2023-05-27T05:46:09;16.67;;;5.97;;
15635;SDS011;7917;50.818;6.972;2023-05-27T05:48:36;15.77;;;5.53;;
15635;SDS011;7917;50.818;6.972;2023-05-27T05:51:02;19.33;;;6.22;;
15635;SDS011;7917;50.818;6.972;2023-05-27T05:53:29;18.55;;;6.65;;
15635;SDS011;7917;50.818;6.972;2023-05-27T05:55:58;11.48;;;5.88;;
15635;SDS011;7917;50.818;6.972;2023-05-27T05:58:24;16.90;;;5.80;;
15635;SDS011;7917;50.818;6.972;2023-05-27T06:00:50;15.13;;;5.45;;
15635;SDS011;7917;50.818;6.972;2023-05-27T06:03:18;17.50;;;7.88;;
15635;SDS011;7917;50.818;6.972;2023-05-27T06:05:45;15.73;;;5.50;;
15635;SDS011;7917;50.818;6.972;2023-05-27T06:08:11;14.65;;;5.28;;
15635;SDS011;7917;50.818;6.972;2023-05-27T06:10:38;16.08;;;6.30;;
15635;SDS011;7917;50.818;6.972;2023-05-27T06:13:05;14.35;;;5.75;;
15635;SDS011;7917;50.818;6.972;2023-05-27T06:15:31;20.27;;;6.65;;
15635;SDS011;7917;50.818;6.972;2023-05-27T06:17:58;20.40;;;6.28;;
15635;SDS011;7917;50.818;6.972;2023-05-27T06:20:26;16.08;;;6.60;;
15635;SDS011;7917;50.818;6.972;2023-05-27T06:22:52;16.00;;;6.15;;
15635;SDS011;7917;50.818;6.972;2023-05-27T06:25:22;13.57;;;5.40;;
15635;SDS011;7917;50.818;6.972;2023-05-27T06:27:49;16.67;;;6.18;;
15635;SDS011;7917;50.818;6.972;2023-05-27T06:30:16;16.48;;;6.05;;
15635;SDS011;7917;50.818;6.972;2023-05-27T06:32:43;12.98;;;4.93;;
15635;SDS011;7917;50.818;6.972;2023-05-27T06:35:10;16.55;;;5.60;;
15635;SDS011;7917;50.818;6.972;2023-05-27T06:37:36;15.48;;;5.57;;
15635;SDS011;7917;50.818;6.972;2023-05-27T06:40:04;13.20;;;5.78;;
15635;SDS011;7917;50.818;6.972;2023-05-27T06:42:31;14.20;;;5.88;;
15635;SDS011;7917;50.818;6.972;2023-05-27T06:44:58;10.63;;;4.97;;
15635;SDS011;7917;50.818;6.972;2023-05-27T06:47:26;15.75;;;5.95;;
15635;SDS011;7917;50.818;6.972;2023-05-27T06:49:52;17.58;;;5.15;;
15635;SDS011;7917;50.818;6.972;2023-05-27T06:52:19;21.63;;;5.68;;
15635;SDS011;7917;50.818;6.972;2023-05-27T06:54:46;16.33;;;4.95;;
15635;SDS011;7917;50.818;6.972;2023-05-27T06:57:13;15.32;;;4.82;;
15635;SDS011;7917;50.818;6.972;2023-05-27T06:59:40;16.08;;;5.85;;
15635;SDS011;7917;50.818;6.972;2023-05-27T07:02:07;14.82;;;5.22;;
15635;SDS011;7917;50.818;6.972;2023-05-27T07:04:35;13.43;;;5.35;;
15635;SDS011;7917;50.818;6.972;2023-05-27T07:07:01;15.48;;;5.65;;
15635;SDS011;7917;50.818;6.972;2023-05-27T07:09:28;13.57;;;5.05;;
15635;SDS011;7917;50.818;6.972;2023-05-27T07:11:55;16.90;;;5.47;;
15635;SDS011;7917;50.818;6.972;2023-05-27T07:14:21;13.43;;;5.45;;
15635;SDS011;7917;50.818;6.972;2023-05-27T07:16:48;14.65;;;5.68;;
15635;SDS011;7917;50.818;6.972;2023-05-27T07:19:14;18.55;;;5.97;;
15635;SDS011;7917;50.818;6.972;2023-05-27T07:21:42;11.98;;;5.22;;
15635;SDS011;7917;50.818;6.972;2023-05-27T07:24:09;14.70;;;4.90;;
15635;SDS011;7917;50.818;6.972;2023-05-27T07:26:36;19.05;;;5.38;;
15635;SDS011;7917;50.818;6.972;2023-05-27T07:29:03;11.25;;;5.20;;
15635;SDS011;7917;50.818;6.972;2023-05-27T07:31:31;15.48;;;5.43;;
15635;SDS011;7917;50.818;6.972;2023-05-27T07:33:57;12.98;;;4.82;;
15635;SDS011;7917;50.818;6.972;2023-05-27T07:36:24;14.20;;;5.65;;
15635;SDS011;7917;50.818;6.972;2023-05-27T07:38:51;16.67;;;5.15;;
15635;SDS011;7917;50.818;6.972;2023-05-27T07:41:18;13.70;;;4.85;;
15635;SDS011;7917;50.818;6.972;2023-05-27T07:43:45;13.68;;;5.88;;
15635;SDS011;7917;50.818;6.972;2023-05-27T07:46:11;20.00;;;7.25;;
15635;SDS011;7917;50.818;6.972;2023-05-27T07:48:37;13.70;;;5.47;;
15635;SDS011;7917;50.818;6.972;2023-05-27T07:51:04;12.45;;;6.07;;
15635;SDS011;7917;50.818;6.972;2023-05-27T07:53:31;12.15;;;5.88;;
15635;SDS011;7917;50.818;6.972;2023-05-27T07:55:58;15.40;;;5.90;;
15635;SDS011;7917;50.818;6.972;2023-05-27T07:58:25;19.85;;;6.07;;
15635;SDS011;7917;50.818;6.972;2023-05-27T08:00:52;16.85;;;5.47;;
15635;SDS011;7917;50.818;6.972;2023-05-27T08:03:18;18.05;;;5.45;;
15635;SDS011;7917;50.818;6.972;2023-05-27T08:05:45;15.13;;;5.80;;
15635;SDS011;7917;50.818;6.972;2023-05-27T08:08:12;14.60;;;5.07;;
15635;SDS011;7917;50.818;6.972;2023-05-27T08:10:38;13.80;;;5.43;;
15635;SDS011;7917;50.818;6.972;2023-05-27T08:13:06;12.95;;;5.30;;
15635;SDS011;7917;50.818;6.972;2023-05-27T08:15:32;14.88;;;5.20;;
15635;SDS011;7917;50.818;6.972;2023-05-27T08:17:59;12.35;;;5.10;;
15635;SDS011;7917;50.818;6.972;2023-05-27T08:20:25;14.00;;;5.68;;
15635;SDS011;7917;50.818;6.972;2023-05-27T08:22:52;10.00;;;4.35;;
15635;SDS011;7917;50.818;6.972;2023-05-27T08:25:19;10.50;;;4.68;;
15635;SDS011;7917;50.818;6.972;2023-05-27T08:27:49;14.73;;;4.95;;
15635;SDS011;7917;50.818;6.972;2023-05-27T08:30:17;17.58;;;5.88;;
15635;SDS011;7917;50.818;6.972;2023-05-27T08:32:45;13.05;;;5.13;;
15635;SDS011;7917;50.818;6.972;2023-05-27T08:35:11;12.00;;;4.80;;
15635;SDS011;7917;50.818;6.972;2023-05-27T08:37:38;14.32;;;5.05;;
15635;SDS011;7917;50.818;6.972;2023-05-27T08:40:09;11.40;;;5.13;;
15635;SDS011;7917;50.818;6.972;2023-05-27T08:42:39;14.75;;;4.93;;
15635;SDS011;7917;50.818;6.972;2023-05-27T08:45:07;15.00;;;4.93;;
15635;SDS011;7917;50.818;6.972;2023-05-27T08:47:35;10.88;;;4.55;;
15635;SDS011;7917;50.818;6.972;2023-05-27T08:50:03;12.70;;;4.97;;
15635;SDS011;7917;50.818;6.972;2023-05-27T08:52:30;13.10;;;4.63;;
15635;SDS011;7917;50.818;6.972;2023-05-27T08:54:57;11.68;;;4.78;;
15635;SDS011;7917;50.818;6.972;2023-05-27T08:57:29;12.30;;;4.43;;
15635;SDS011;7917;50.818;6.972;2023-05-27T08:59:57;12.45;;;5.53;;
15635;SDS011;7917;50.818;6.972;2023-05-27T09:02:24;12.10;;;4.35;;
15635;SDS011;7917;50.818;6.972;2023-05-27T09:04:53;11.55;;;4.75;;
15635;SDS011;7917;50.818;6.972;2023-05-27T09:07:21;10.32;;;4.35;;
15635;SDS011;7917;50.818;6.972;2023-05-27T09:09:55;15.95;;;4.30;;
15635;SDS011;7917;50.818;6.972;2023-05-27T09:12:22;14.68;;;4.63;;
15635;SDS011;7917;50.818;6.972;2023-05-27T09:14:51;14.05;;;4.60;;
15635;SDS011;7917;50.818;6.972;2023-05-27T09:17:18;13.45;;;4.80;;
15635;SDS011;7917;50.818;6.972;2023-05-27T09:19:45;10.43;;;4.18;;
15635;SDS011;7917;50.818;6.972;2023-05-27T09:22:18;13.30;;;4.50;;
15635;SDS011;7917;50.818;6.972;2023-05-27T09:24:46;14.27;;;5.10;;
15635;SDS011;7917;50.818;6.972;2023-05-27T09:27:12;13.02;;;5.20;;
15635;SDS011;7917;50.818;6.972;2023-05-27T09:29:39;11.00;;;4.63;;
15635;SDS011;7917;50.818;6.972;2023-05-27T09:32:06;10.93;;;4.75;;
15635;SDS011;7917;50.818;6.972;2023-05-27T09:34:37;13.13;;;4.70;;
15635;SDS011;7917;50.818;6.972;2023-05-27T09:37:04;13.75;;;4.50;;
15635;SDS011;7917;50.818;6.972;2023-05-27T09:39:32;12.70;;;4.55;;
15635;SDS011;7917;50.818;6.972;2023-05-27T09:42:00;12.23;;;4.70;;
15635;SDS011;7917;50.818;6.972;2023-05-27T09:44:27;12.30;;;4.72;;
15635;SDS011;7917;50.818;6.972;2023-05-27T09:46:55;13.85;;;4.88;;
15635;SDS011;7917;50.818;6.972;2023-05-27T09:49:23;11.27;;;4.78;;
15635;SDS011;7917;50.818;6.972;2023-05-27T09:51:53;8.13;;;3.92;;
15635;SDS011;7917;50.818;6.972;2023-05-27T09:54:23;10.20;;;4.45;;
15635;SDS011;7917;50.818;6.972;2023-05-27T09:56:50;14.60;;;4.53;;
15635;SDS011;7917;50.818;6.972;2023-05-27T09:59:18;11.25;;;4.65;;
15635;SDS011;7917;50.818;6.972;2023-05-27T10:01:45;13.30;;;4.63;;
15635;SDS011;7917;50.818;6.972;2023-05-27T10:04:13;10.25;;;4.65;;
15635;SDS011;7917;50.818;6.972;2023-05-27T10:06:42;13.07;;;3.72;;
15635;SDS011;7917;50.818;6.972;2023-05-27T10:09:10;15.15;;;4.55;;
15635;SDS011;7917;50.818;6.972;2023-05-27T10:11:38;10.13;;;4.15;;
15635;SDS011;7917;50.818;6.972;2023-05-27T10:14:07;14.52;;;4.72;;
15635;SDS011;7917;50.818;6.972;2023-05-27T10:16:34;12.60;;;4.47;;
15635;SDS011;7917;50.818;6.972;2023-05-27T10:19:00;9.95;;;4.05;;
15635;SDS011;7917;50.818;6.972;2023-05-27T10:21:28;10.48;;;4.38;;
15635;SDS011;7917;50.818;6.972;2023-05-27T10:23:58;10.82;;;4.15;;
15635;SDS011;7917;50.818;6.972;2023-05-27T10:26:31;10.30;;;4.25;;
15635;SDS011;7917;50.818;6.972;2023-05-27T10:29:10;11.13;;;4.03;;
15635;SDS011;7917;50.818;6.972;2023-05-27T10:31:43;10.20;;;4.13;;
15635;SDS011;7917;50.818;6.972;2023-05-27T10:34:11;7.57;;;3.60;;
15635;SDS011;7917;50.818;6.972;2023-05-27T10:36:38;9.88;;;3.88;;
15635;SDS011;7917;50.818;6.972;2023-05-27T10:39:05;9.80;;;4.10;;
15635;SDS011;7917;50.818;6.972;2023-05-27T10:41:40;10.80;;;4.82;;
15635;SDS011;7917;50.818;6.972;2023-05-27T10:44:07;11.30;;;3.97;;
15635;SDS011;7917;50.818;6.972;2023-05-27T10:46:39;10.75;;;3.80;;
15635;SDS011;7917;50.818;6.972;2023-05-27T10:51:52;23.38;;;8.55;;
15635;SDS011;7917;50.818;6.972;2023-05-27T10:54:23;13.60;;;4.97;;
15635;SDS011;7917;50.818;6.972;2023-05-27T10:56:50;13.02;;;4.50;;
15635;SDS011;7917;50.818;6.972;2023-05-27T10:59:20;9.57;;;4.10;;
15635;SDS011;7917;50.818;6.972;2023-05-27T11:01:48;10.50;;;3.92;;
15635;SDS011;7917;50.818;6.972;2023-05-27T11:04:17;9.50;;;4.18;;
15635;SDS011;7917;50.818;6.972;2023-05-27T11:06:57;9.40;;;3.95;;
15635;SDS011;7917;50.818;6.972;2023-05-27T11:09:25;10.52;;;4.05;;
15635;SDS011;7917;50.818;6.972;2023-05-27T11:11:54;11.98;;;4.03;;
15635;SDS011;7917;50.818;6.972;2023-05-27T11:14:23;11.82;;;4.13;;
15635;SDS011;7917;50.818;6.972;2023-05-27T11:16:50;13.57;;;4.28;;
15635;SDS011;7917;50.818;6.972;2023-05-27T11:19:17;11.10;;;3.83;;
15635;SDS011;7917;50.818;6.972;2023-05-27T11:21:44;10.52;;;3.78;;
15635;SDS011;7917;50.818;6.972;2023-05-27T11:24:15;6.90;;;4.03;;
15635;SDS011;7917;50.818;6.972;2023-05-27T11:26:42;9.23;;;3.47;;
15635;SDS011;7917;50.818;6.972;2023-05-27T11:29:11;8.68;;;4.00;;
15635;SDS011;7917;50.818;6.972;2023-05-27T11:31:40;10.82;;;4.20;;
15635;SDS011;7917;50.818;6.972;2023-05-27T11:34:12;11.32;;;3.90;;
15635;SDS011;7917;50.818;6.972;2023-05-27T11:36:40;10.02;;;3.75;;
15635;SDS011;7917;50.818;6.972;2023-05-27T11:39:11;12.07;;;3.83;;
15635;SDS011;7917;50.818;6.972;2023-05-27T11:41:47;9.27;;;3.30;;
15635;SDS011;7917;50.818;6.972;2023-05-27T11:44:15;10.38;;;4.15;;
15635;SDS011;7917;50.818;6.972;2023-05-27T11:46:44;9.80;;;4.25;;
15635;SDS011;7917;50.818;6.972;2023-05-27T11:49:12;10.73;;;3.70;;
15635;SDS011;7917;50.818;6.972;2023-05-27T11:51:41;9.55;;;3.90;;
15635;SDS011;7917;50.818;6.972;2023-05-27T11:54:16;9.82;;;3.72;;
15635;SDS011;7917;50.818;6.972;2023-05-27T11:56:43;10.13;;;3.50;;
15635;SDS011;7917;50.818;6.972;2023-05-27T11:59:10;7.03;;;3.40;;
15635;SDS011;7917;50.818;6.972;2023-05-27T12:01:39;14.77;;;4.15;;
15635;SDS011;7917;50.818;6.972;2023-05-27T12:04:06;7.43;;;3.88;;
15635;SDS011;7917;50.818;6.972;2023-05-27T12:06:33;7.47;;;3.50;;
15635;SDS011;7917;50.818;6.972;2023-05-27T12:09:05;9.85;;;3.70;;
15635;SDS011;7917;50.818;6.972;2023-05-27T12:11:33;8.75;;;3.55;;
15635;SDS011;7917;50.818;6.972;2023-05-27T12:14:00;11.05;;;4.22;;
15635;SDS011;7917;50.818;6.972;2023-05-27T12:16:27;8.93;;;3.85;;
15635;SDS011;7917;50.818;6.972;2023-05-27T12:18:54;8.85;;;4.00;;
15635;SDS011;7917;50.818;6.972;2023-05-27T12:21:22;10.75;;;4.07;;
15635;SDS011;7917;50.818;6.972;2023-05-27T12:23:49;9.32;;;3.67;;
15635;SDS011;7917;50.818;6.972;2023-05-27T12:26:16;8.65;;;3.75;;
15635;SDS011;7917;50.818;6.972;2023-05-27T12:28:43;6.80;;;3.40;;
15635;SDS011;7917;50.818;6.972;2023-05-27T12:31:10;11.43;;;3.35;;
15635;SDS011;7917;50.818;6.972;2023-05-27T12:33:37;10.27;;;3.88;;
15635;SDS011;7917;50.818;6.972;2023-05-27T12:36:03;8.60;;;3.25;;
15635;SDS011;7917;50.818;6.972;2023-05-27T12:38:31;10.10;;;3.95;;
15635;SDS011;7917;50.818;6.972;2023-05-27T12:40:57;9.00;;;3.22;;
15635;SDS011;7917;50.818;6.972;2023-05-27T12:43:24;8.38;;;3.88;;
15635;SDS011;7917;50.818;6.972;2023-05-27T12:45:51;9.05;;;3.90;;
15635;SDS011;7917;50.818;6.972;2023-05-27T12:48:18;7.78;;;3.45;;
15635;SDS011;7917;50.818;6.972;2023-05-27T12:50:46;7.40;;;3.35;;
15635;SDS011;7917;50.818;6.972;2023-05-27T12:53:13;11.10;;;3.42;;
15635;SDS011;7917;50.818;6.972;2023-05-27T12:55:42;9.68;;;4.07;;
15635;SDS011;7917;50.818;6.972;2023-05-27T12:58:09;11.35;;;3.63;;
15635;SDS011;7917;50.818;6.972;2023-05-27T13:00:36;8.27;;;3.30;;
15635;SDS011;7917;50.818;6.972;2023-05-27T13:03:03;8.23;;;2.75;;
15635;SDS011;7917;50.818;6.972;2023-05-27T13:05:29;9.52;;;3.55;;
15635;SDS011;7917;50.818;6.972;2023-05-27T13:07:57;7.32;;;3.10;;
15635;SDS011;7917;50.818;6.972;2023-05-27T13:10:25;8.68;;;3.35;;
15635;SDS011;7917;50.818;6.972;2023-05-27T13:12:53;6.65;;;3.00;;
15635;SDS011;7917;50.818;6.972;2023-05-27T13:15:20;7.78;;;3.35;;
15635;SDS011;7917;50.818;6.972;2023-05-27T13:17:48;9.57;;;4.40;;
15635;SDS011;7917;50.818;6.972;2023-05-27T13:20:16;9.02;;;4.03;;
15635;SDS011;7917;50.818;6.972;2023-05-27T13:22:44;9.45;;;3.72;;
15635;SDS011;7917;50.818;6.972;2023-05-27T13:25:11;14.05;;;4.30;;
15635;SDS011;7917;50.818;6.972;2023-05-27T13:27:38;11.25;;;4.05;;
15635;SDS011;7917;50.818;6.972;2023-05-27T13:30:08;7.68;;;3.05;;
15635;SDS011;7917;50.818;6.972;2023-05-27T13:32:36;8.23;;;3.58;;
15635;SDS011;7917;50.818;6.972;2023-05-27T13:35:03;6.90;;;3.45;;
15635;SDS011;7917;50.818;6.972;2023-05-27T13:37:30;6.93;;;3.05;;
15635;SDS011;7917;50.818;6.972;2023-05-27T13:39:57;6.63;;;3.30;;
15635;SDS011;7917;50.818;6.972;2023-05-27T13:42:24;8.88;;;4.07;;
15635;SDS011;7917;50.818;6.972;2023-05-27T13:44:51;6.70;;;3.60;;
15635;SDS011;7917;50.818;6.972;2023-05-27T13:47:18;7.30;;;3.10;;
15635;SDS011;7917;50.818;6.972;2023-05-27T13:49:44;7.15;;;2.95;;
15635;SDS011;7917;50.818;6.972;2023-05-27T13:52:11;7.25;;;3.38;;
15635;SDS011;7917;50.818;6.972;2023-05-27T13:54:37;6.88;;;3.00;;
15635;SDS011;7917;50.818;6.972;2023-05-27T13:57:04;6.97;;;3.17;;
15635;SDS011;7917;50.818;6.972;2023-05-27T13:59:31;6.97;;;3.10;;
15635;SDS011;7917;50.818;6.972;2023-05-27T14:01:57;5.28;;;3.15;;
15635;SDS011;7917;50.818;6.972;2023-05-27T14:04:25;8.45;;;3.25;;
15635;SDS011;7917;50.818;6.972;2023-05-27T14:06:52;5.72;;;2.90;;
15635;SDS011;7917;50.818;6.972;2023-05-27T14:09:18;8.95;;;3.65;;
15635;SDS011;7917;50.818;6.972;2023-05-27T14:11:46;8.13;;;3.00;;
15635;SDS011;7917;50.818;6.972;2023-05-27T14:14:13;10.48;;;3.63;;
15635;SDS011;7917;50.818;6.972;2023-05-27T14:16:40;7.45;;;3.10;;
15635;SDS011;7917;50.818;6.972;2023-05-27T14:19:07;8.18;;;3.10;;
15635;SDS011;7917;50.818;6.972;2023-05-27T14:21:34;6.88;;;3.28;;
15635;SDS011;7917;50.818;6.972;2023-05-27T14:24:00;5.05;;;3.08;;
15635;SDS011;7917;50.818;6.972;2023-05-27T14:26:27;5.30;;;2.72;;
15635;SDS011;7917;50.818;6.972;2023-05-27T14:28:54;6.32;;;2.67;;
15635;SDS011;7917;50.818;6.972;2023-05-27T14:31:20;6.32;;;3.15;;
15635;SDS011;7917;50.818;6.972;2023-05-27T14:33:47;5.18;;;2.65;;
15635;SDS011;7917;50.818;6.972;2023-05-27T14:36:13;7.97;;;3.65;;
15635;SDS011;7917;50.818;6.972;2023-05-27T14:38:41;9.98;;;3.22;;
15635;SDS011;7917;50.818;6.972;2023-05-27T14:41:09;7.32;;;3.10;;
15635;SDS011;7917;50.818;6.972;2023-05-27T14:43:36;8.95;;;3.40;;
15635;SDS011;7917;50.818;6.972;2023-05-27T14:46:02;6.32;;;2.92;;
15635;SDS011;7917;50.818;6.972;2023-05-27T14:48:30;6.40;;;3.10;;
15635;SDS011;7917;50.818;6.972;2023-05-27T14:50:56;6.20;;;3.40;;
15635;SDS011;7917;50.818;6.972;2023-05-27T14:53:23;5.82;;;2.58;;
15635;SDS011;7917;50.818;6.972;2023-05-27T14:55:51;6.72;;;3.05;;
15635;SDS011;7917;50.818;6.972;2023-05-27T14:58:20;6.32;;;2.70;;